CFMGP CZBF-CYQB
Flight info
| Callsign | CFMGP |
|---|---|
| Flight time | N/A |
| Altitude | 26000 |
| Route | VODIX MIVAX SIMTO SIMTO4 |
| Aircraft | B350/L-SBGRWY/S |
Departure
| Time | 2026-04-28 12:00 |
|---|---|
| Airport | Bathurst Airport (CZBF) |
Arrival
| Time | N/A |
|---|---|
| Airport | Quebec Jean Lesage International Airport (CYQB) |
| Time | Latitude | Longitude | Altitude | Speed | Heading |
|---|---|---|---|---|---|
| 2026-04-28 11:20 | 47.63080 | -65.74349 | 197 ft | 0 kts | 326° |
| 2026-04-28 11:57 | 47.63083 | -65.74350 | 207 ft | 3 kts | 350° |
| 2026-04-28 11:57 | 47.63053 | -65.74314 | 200 ft | 12 kts | 166° |
| 2026-04-28 11:57 | 47.62961 | -65.74306 | 202 ft | 13 kts | 176° |
| 2026-04-28 11:57 | 47.62919 | -65.74370 | 206 ft | 10 kts | 261° |
| 2026-04-28 11:58 | 47.62908 | -65.74475 | 208 ft | 10 kts | 261° |
| 2026-04-28 11:58 | 47.62896 | -65.74586 | 202 ft | 11 kts | 261° |
| 2026-04-28 11:58 | 47.62885 | -65.74704 | 200 ft | 12 kts | 265° |
| 2026-04-28 11:58 | 47.62875 | -65.74823 | 200 ft | 11 kts | 262° |
| 2026-04-28 11:59 | 47.62865 | -65.74935 | 206 ft | 10 kts | 264° |
| 2026-04-28 11:59 | 47.62859 | -65.75025 | 200 ft | 5 kts | 232° |
| 2026-04-28 11:59 | 47.62857 | -65.75000 | 200 ft | 0 kts | 80° |
| 2026-04-28 12:00 | 47.62862 | -65.74963 | 200 ft | 29 kts | 79° |
| 2026-04-28 12:00 | 47.62936 | -65.74187 | 204 ft | 114 kts | 82° |
| 2026-04-28 12:00 | 47.63061 | -65.72829 | 451 ft | 151 kts | 83° |
| 2026-04-28 12:00 | 47.63203 | -65.71362 | 1438 ft | 132 kts | 77° |
| 2026-04-28 12:01 | 47.63672 | -65.70154 | 1883 ft | 153 kts | 43° |
| 2026-04-28 12:01 | 47.64652 | -65.69387 | 2381 ft | 166 kts | 8° |
| 2026-04-28 12:01 | 47.65745 | -65.69795 | 2990 ft | 167 kts | 319° |
| 2026-04-28 12:01 | 47.66270 | -65.71271 | 3604 ft | 166 kts | 272° |
| 2026-04-28 12:02 | 47.66196 | -65.72989 | 4191 ft | 169 kts | 266° |
| 2026-04-28 12:02 | 47.66173 | -65.74750 | 4799 ft | 171 kts | 269° |
| 2026-04-28 12:02 | 47.66161 | -65.76299 | 5324 ft | 173 kts | 269° |
| 2026-04-28 12:02 | 47.66134 | -65.78093 | 5919 ft | 175 kts | 268° |
| 2026-04-28 12:03 | 47.66100 | -65.79915 | 6521 ft | 177 kts | 268° |
| 2026-04-28 12:03 | 47.66064 | -65.81753 | 7095 ft | 179 kts | 268° |
| 2026-04-28 12:03 | 47.66025 | -65.83610 | 7699 ft | 181 kts | 269° |
| 2026-04-28 12:03 | 47.65986 | -65.85485 | 8300 ft | 182 kts | 269° |
| 2026-04-28 12:04 | 47.65949 | -65.87348 | 8898 ft | 184 kts | 269° |
| 2026-04-28 12:04 | 47.65910 | -65.89255 | 9509 ft | 186 kts | 269° |
| 2026-04-28 12:04 | 47.65870 | -65.91187 | 10118 ft | 188 kts | 269° |
| 2026-04-28 12:04 | 47.65829 | -65.93135 | 10676 ft | 190 kts | 269° |
| 2026-04-28 12:05 | 47.65789 | -65.95105 | 11227 ft | 192 kts | 269° |
| 2026-04-28 12:05 | 47.65747 | -65.97099 | 11777 ft | 194 kts | 270° |
| 2026-04-28 12:05 | 47.65704 | -65.99109 | 12336 ft | 196 kts | 270° |
| 2026-04-28 12:05 | 47.65661 | -66.01144 | 12888 ft | 198 kts | 270° |
| 2026-04-28 12:06 | 47.65617 | -66.03197 | 13445 ft | 200 kts | 270° |
| 2026-04-28 12:06 | 47.65572 | -66.05246 | 13999 ft | 202 kts | 270° |
| 2026-04-28 12:06 | 47.65525 | -66.07363 | 14513 ft | 204 kts | 270° |
| 2026-04-28 12:06 | 47.65479 | -66.09485 | 14994 ft | 207 kts | 270° |
| 2026-04-28 12:07 | 47.65431 | -66.11630 | 15479 ft | 209 kts | 270° |
| 2026-04-28 12:07 | 47.65383 | -66.13777 | 16001 ft | 212 kts | 270° |
| 2026-04-28 12:07 | 47.65335 | -66.15979 | 16523 ft | 215 kts | 271° |
| 2026-04-28 12:07 | 47.65286 | -66.18211 | 17033 ft | 218 kts | 271° |
| 2026-04-28 12:08 | 47.65234 | -66.20475 | 17553 ft | 221 kts | 271° |
| 2026-04-28 12:08 | 47.65181 | -66.22764 | 18062 ft | 224 kts | 271° |
| 2026-04-28 12:08 | 47.65126 | -66.25098 | 18556 ft | 227 kts | 272° |
| 2026-04-28 12:08 | 47.65070 | -66.27459 | 18993 ft | 230 kts | 272° |
| 2026-04-28 12:09 | 47.65013 | -66.29837 | 19407 ft | 233 kts | 272° |
| 2026-04-28 12:09 | 47.64957 | -66.32218 | 19863 ft | 235 kts | 272° |
| 2026-04-28 12:09 | 47.64896 | -66.34670 | 20327 ft | 239 kts | 272° |
| 2026-04-28 12:09 | 47.64835 | -66.37146 | 20792 ft | 242 kts | 272° |
| 2026-04-28 12:10 | 47.64773 | -66.39653 | 21245 ft | 245 kts | 272° |
| 2026-04-28 12:10 | 47.64710 | -66.42191 | 21702 ft | 248 kts | 272° |
| 2026-04-28 12:10 | 47.64646 | -66.44760 | 22160 ft | 251 kts | 272° |
| 2026-04-28 12:10 | 47.64579 | -66.47356 | 22604 ft | 253 kts | 272° |
| 2026-04-28 12:11 | 47.64535 | -66.49094 | 22894 ft | 255 kts | 273° |
| 2026-04-28 12:11 | 47.64444 | -66.52606 | 23477 ft | 258 kts | 273° |
| 2026-04-28 12:11 | 47.64375 | -66.55282 | 23897 ft | 261 kts | 273° |
| 2026-04-28 12:11 | 47.64304 | -66.57979 | 24276 ft | 262 kts | 273° |
| 2026-04-28 12:12 | 47.64240 | -66.60307 | 24607 ft | 263 kts | 273° |
| 2026-04-28 12:12 | 47.64202 | -66.61739 | 24809 ft | 263 kts | 273° |
| 2026-04-28 12:12 | 47.64154 | -66.63566 | 25067 ft | 263 kts | 273° |
| 2026-04-28 12:13 | 47.64114 | -66.65054 | 25274 ft | 264 kts | 273° |
| 2026-04-28 12:13 | 47.64083 | -66.66140 | 25426 ft | 264 kts | 273° |
| 2026-04-28 12:13 | 47.64022 | -66.68328 | 25724 ft | 264 kts | 274° |
| 2026-04-28 12:14 | 47.63946 | -66.71057 | 26083 ft | 265 kts | 274° |
| 2026-04-28 12:14 | 47.63871 | -66.73812 | 26282 ft | 274 kts | 274° |
| 2026-04-28 12:14 | 47.63799 | -66.76714 | 26309 ft | 287 kts | 274° |
| 2026-04-28 12:14 | 47.63721 | -66.79730 | 26318 ft | 298 kts | 273° |
| 2026-04-28 12:15 | 47.63637 | -66.82850 | 26317 ft | 307 kts | 273° |
| 2026-04-28 12:15 | 47.63546 | -66.86051 | 26319 ft | 314 kts | 272° |
| 2026-04-28 12:15 | 47.63450 | -66.89315 | 26323 ft | 319 kts | 272° |
| 2026-04-28 12:15 | 47.63352 | -66.92628 | 26325 ft | 324 kts | 272° |
| 2026-04-28 12:16 | 47.63251 | -66.95983 | 26325 ft | 327 kts | 272° |
| 2026-04-28 12:16 | 47.63149 | -66.99317 | 26320 ft | 330 kts | 272° |
| 2026-04-28 12:16 | 47.63045 | -67.02724 | 26323 ft | 331 kts | 272° |
| 2026-04-28 12:16 | 47.62939 | -67.06141 | 26325 ft | 333 kts | 272° |
| 2026-04-28 12:17 | 47.62833 | -67.09581 | 26326 ft | 334 kts | 272° |
| 2026-04-28 12:17 | 47.62725 | -67.13030 | 26324 ft | 335 kts | 272° |
| 2026-04-28 12:17 | 47.62614 | -67.16491 | 26326 ft | 336 kts | 272° |
| 2026-04-28 12:17 | 47.62504 | -67.19949 | 26327 ft | 336 kts | 272° |
| 2026-04-28 12:18 | 47.62395 | -67.23375 | 26324 ft | 337 kts | 272° |
| 2026-04-28 12:18 | 47.62284 | -67.26840 | 26326 ft | 337 kts | 272° |
| 2026-04-28 12:18 | 47.62169 | -67.30317 | 26327 ft | 337 kts | 272° |
| 2026-04-28 12:18 | 47.62054 | -67.33777 | 26326 ft | 337 kts | 272° |
| 2026-04-28 12:19 | 47.61938 | -67.37249 | 26324 ft | 337 kts | 272° |
| 2026-04-28 12:19 | 47.61822 | -67.40714 | 26324 ft | 337 kts | 272° |
| 2026-04-28 12:19 | 47.61704 | -67.44185 | 26324 ft | 337 kts | 272° |
| 2026-04-28 12:19 | 47.61586 | -67.47644 | 26319 ft | 336 kts | 271° |
| 2026-04-28 12:20 | 47.61467 | -67.51107 | 26324 ft | 336 kts | 271° |
| 2026-04-28 12:20 | 47.61346 | -67.54568 | 26325 ft | 336 kts | 271° |
| 2026-04-28 12:20 | 47.61225 | -67.58033 | 26320 ft | 336 kts | 271° |
| 2026-04-28 12:20 | 47.61102 | -67.61489 | 26322 ft | 336 kts | 271° |
| 2026-04-28 12:21 | 47.60978 | -67.64948 | 26320 ft | 336 kts | 271° |
| 2026-04-28 12:21 | 47.60855 | -67.68358 | 26324 ft | 335 kts | 271° |
| 2026-04-28 12:21 | 47.60730 | -67.71804 | 26322 ft | 335 kts | 271° |
| 2026-04-28 12:21 | 47.60603 | -67.75257 | 26317 ft | 335 kts | 271° |
| 2026-04-28 12:22 | 47.60476 | -67.78700 | 26321 ft | 335 kts | 271° |
| 2026-04-28 12:22 | 47.60347 | -67.82194 | 26316 ft | 335 kts | 271° |
| 2026-04-28 12:22 | 47.60218 | -67.85635 | 26314 ft | 335 kts | 271° |
| 2026-04-28 12:22 | 47.60088 | -67.89084 | 26315 ft | 335 kts | 271° |
| 2026-04-28 12:23 | 47.59958 | -67.92483 | 26315 ft | 335 kts | 271° |
| 2026-04-28 12:23 | 47.59825 | -67.95930 | 26313 ft | 334 kts | 271° |
| 2026-04-28 12:23 | 47.59692 | -67.99370 | 26316 ft | 334 kts | 271° |
| 2026-04-28 12:23 | 47.59558 | -68.02810 | 26305 ft | 334 kts | 271° |
| 2026-04-28 12:24 | 47.59424 | -68.06251 | 26314 ft | 334 kts | 271° |
| 2026-04-28 12:24 | 47.59288 | -68.09688 | 26306 ft | 334 kts | 271° |
| 2026-04-28 12:24 | 47.59151 | -68.13118 | 26301 ft | 333 kts | 271° |
| 2026-04-28 12:24 | 47.59012 | -68.16541 | 26302 ft | 333 kts | 271° |
| 2026-04-28 12:25 | 47.58870 | -68.19970 | 26300 ft | 333 kts | 271° |
| 2026-04-28 12:25 | 47.58732 | -68.23346 | 26297 ft | 332 kts | 271° |
| 2026-04-28 12:25 | 47.58592 | -68.26805 | 26298 ft | 332 kts | 271° |
| 2026-04-28 12:25 | 47.58454 | -68.30175 | 26297 ft | 332 kts | 271° |
| 2026-04-28 12:26 | 47.58310 | -68.33587 | 26295 ft | 332 kts | 271° |
| 2026-04-28 12:26 | 47.58167 | -68.36992 | 26289 ft | 331 kts | 270° |
| 2026-04-28 12:26 | 47.58022 | -68.40401 | 26293 ft | 331 kts | 270° |
| 2026-04-28 12:26 | 47.57877 | -68.43804 | 26295 ft | 331 kts | 270° |
| 2026-04-28 12:27 | 47.57732 | -68.47202 | 26291 ft | 331 kts | 270° |
| 2026-04-28 12:27 | 47.57585 | -68.50603 | 26291 ft | 330 kts | 270° |
| 2026-04-28 12:27 | 47.57437 | -68.54006 | 26290 ft | 330 kts | 270° |
| 2026-04-28 12:27 | 47.57288 | -68.57395 | 26285 ft | 330 kts | 270° |
| 2026-04-28 12:28 | 47.57138 | -68.60789 | 26288 ft | 330 kts | 270° |
| 2026-04-28 12:28 | 47.56987 | -68.64173 | 26277 ft | 330 kts | 270° |
| 2026-04-28 12:28 | 47.56836 | -68.67572 | 26282 ft | 330 kts | 270° |
| 2026-04-28 12:28 | 47.56683 | -68.70957 | 26275 ft | 329 kts | 270° |
| 2026-04-28 12:29 | 47.56377 | -68.77678 | 26269 ft | 329 kts | 270° |
| 2026-04-28 12:29 | 47.56223 | -68.81058 | 26263 ft | 329 kts | 270° |
| 2026-04-28 12:29 | 47.56067 | -68.84442 | 26264 ft | 329 kts | 270° |
| 2026-04-28 12:30 | 47.55912 | -68.87750 | 26262 ft | 329 kts | 270° |
| 2026-04-28 12:30 | 47.55762 | -68.90946 | 26257 ft | 329 kts | 270° |
| 2026-04-28 12:30 | 47.55604 | -68.94319 | 26258 ft | 329 kts | 270° |
| 2026-04-28 12:30 | 47.55444 | -68.97693 | 26251 ft | 328 kts | 270° |
| 2026-04-28 12:31 | 47.55304 | -69.00631 | 26251 ft | 328 kts | 270° |
| 2026-04-28 12:31 | 47.55143 | -69.03994 | 26246 ft | 328 kts | 270° |
| 2026-04-28 12:31 | 47.54980 | -69.07365 | 26243 ft | 328 kts | 270° |
| 2026-04-28 12:31 | 47.54817 | -69.10730 | 26240 ft | 327 kts | 270° |
| 2026-04-28 12:32 | 47.54653 | -69.14091 | 26238 ft | 327 kts | 269° |
| 2026-04-28 12:32 | 47.54487 | -69.17451 | 26241 ft | 327 kts | 269° |
| 2026-04-28 12:32 | 47.54324 | -69.20767 | 26232 ft | 327 kts | 269° |
| 2026-04-28 12:32 | 47.54157 | -69.24124 | 26230 ft | 327 kts | 269° |
| 2026-04-28 12:33 | 47.53915 | -69.27480 | 26230 ft | 328 kts | 265° |
| 2026-04-28 12:33 | 47.53555 | -69.30811 | 26228 ft | 328 kts | 264° |
| 2026-04-28 12:33 | 47.53162 | -69.34140 | 26226 ft | 328 kts | 263° |
| 2026-04-28 12:33 | 47.52766 | -69.37471 | 26226 ft | 327 kts | 263° |
| 2026-04-28 12:34 | 47.52380 | -69.40785 | 26224 ft | 327 kts | 264° |
| 2026-04-28 12:34 | 47.52002 | -69.44109 | 26223 ft | 327 kts | 264° |
| 2026-04-28 12:34 | 47.51631 | -69.47423 | 26218 ft | 326 kts | 264° |
| 2026-04-28 12:34 | 47.51264 | -69.50734 | 26219 ft | 326 kts | 264° |
| 2026-04-28 12:35 | 47.50900 | -69.54043 | 26220 ft | 326 kts | 264° |
| 2026-04-28 12:35 | 47.50535 | -69.57352 | 26217 ft | 326 kts | 264° |
| 2026-04-28 12:35 | 47.50171 | -69.60659 | 26213 ft | 325 kts | 264° |
| 2026-04-28 12:35 | 47.49811 | -69.63924 | 26213 ft | 325 kts | 264° |
| 2026-04-28 12:36 | 47.49445 | -69.67226 | 26214 ft | 325 kts | 264° |
| 2026-04-28 12:36 | 47.49078 | -69.70537 | 26098 ft | 328 kts | 264° |
| 2026-04-28 12:36 | 47.48707 | -69.73901 | 25831 ft | 336 kts | 264° |
| 2026-04-28 12:36 | 47.48327 | -69.77343 | 25534 ft | 341 kts | 264° |
| 2026-04-28 12:37 | 47.47939 | -69.80813 | 25245 ft | 342 kts | 263° |
| 2026-04-28 12:37 | 47.47550 | -69.84291 | 24957 ft | 343 kts | 263° |
| 2026-04-28 12:37 | 47.47159 | -69.87772 | 24674 ft | 344 kts | 263° |
| 2026-04-28 12:37 | 47.46767 | -69.91265 | 24396 ft | 345 kts | 263° |
| 2026-04-28 12:38 | 47.46371 | -69.94761 | 24114 ft | 345 kts | 263° |
| 2026-04-28 12:38 | 47.45973 | -69.98265 | 23842 ft | 346 kts | 263° |
| 2026-04-28 12:38 | 47.45574 | -70.01773 | 23525 ft | 346 kts | 262° |
| 2026-04-28 12:38 | 47.45175 | -70.05285 | 23192 ft | 347 kts | 262° |
| 2026-04-28 12:39 | 47.44778 | -70.08755 | 22871 ft | 347 kts | 262° |
| 2026-04-28 12:39 | 47.44373 | -70.12274 | 22549 ft | 347 kts | 261° |
| 2026-04-28 12:39 | 47.43695 | -70.15701 | 22214 ft | 350 kts | 246° |
| 2026-04-28 12:39 | 47.42361 | -70.18698 | 21847 ft | 351 kts | 226° |
| 2026-04-28 12:40 | 47.40621 | -70.21212 | 21494 ft | 351 kts | 227° |
| 2026-04-28 12:40 | 47.39045 | -70.23970 | 21137 ft | 351 kts | 232° |
| 2026-04-28 12:40 | 47.37571 | -70.26770 | 20791 ft | 351 kts | 232° |
| 2026-04-28 12:40 | 47.36068 | -70.29598 | 20444 ft | 350 kts | 231° |
| 2026-04-28 12:41 | 47.34545 | -70.32406 | 20102 ft | 350 kts | 230° |
| 2026-04-28 12:41 | 47.33530 | -70.34251 | 19876 ft | 350 kts | 230° |